Time;durP1;ratioP1;P1;durP2;ratioP2;P2;SDS_P1;SDS_P2;PMS_P1;PMS_P2;Temp;Humidity;BMP_temperature;BMP_pressure;BME280_temperature;BME280_humidity;BME280_pressure;Samples;Min_cycle;Max_cycle;Signal;HPM_P1;HPM_P2
2022/12/21 00:01:17;;;;;;;0.00;0.00;;;;;;;;;;5091935;28;20020;-60
2022/12/21 00:03:43;;;;;;;0.00;0.00;;;;;;;;;;5094057;28;20488;-59
2022/12/21 00:06:09;;;;;;;0.00;0.00;;;;;;;;;;5095130;28;20016;-59
2022/12/21 00:08:36;;;;;;;0.10;0.10;;;;;;;;;;5095211;28;20476;-59
2022/12/21 00:11:01;;;;;;;0.00;0.00;;;;;;;;;;5094765;28;20028;-60
2022/12/21 00:13:27;;;;;;;0.00;0.00;;;;;;;;;;5095041;28;20024;-59
2022/12/21 00:15:59;;;;;;;0.08;0.08;;;;;;;;;;5093501;28;20044;-59
2022/12/21 00:18:25;;;;;;;0.20;0.20;;;;;;;;;;5093869;28;20056;-59
2022/12/21 00:21:04;;;;;;;0.00;0.00;;;;;;;;;;5094952;28;20047;-59
2022/12/21 00:23:29;;;;;;;0.00;0.00;;;;;;;;;;5093591;28;20115;-59
2022/12/21 00:25:55;;;;;;;0.00;0.00;;;;;;;;;;5094851;28;20047;-59
2022/12/21 00:28:21;;;;;;;0.03;0.03;;;;;;;;;;5094642;28;20097;-58
2022/12/21 00:30:47;;;;;;;0.00;0.00;;;;;;;;;;5093596;28;20032;-58
2022/12/21 00:33:12;;;;;;;0.25;0.25;;;;;;;;;;5094312;28;20457;-60
2022/12/21 00:35:38;;;;;;;0.25;0.25;;;;;;;;;;5094660;28;20533;-59
2022/12/21 00:38:03;;;;;;;0.00;0.00;;;;;;;;;;5094874;28;20468;-58
2022/12/21 00:40:29;;;;;;;0.00;0.00;;;;;;;;;;5093385;28;20024;-60
2022/12/21 00:42:54;;;;;;;0.00;0.00;;;;;;;;;;5093105;28;20119;-60
2022/12/21 00:45:20;;;;;;;0.00;0.00;;;;;;;;;;5093079;28;20047;-60
2022/12/21 00:47:45;;;;;;;0.20;0.20;;;;;;;;;;5093335;28;20051;-59
2022/12/21 00:50:10;;;;;;;0.20;0.20;;;;;;;;;;5094804;28;20008;-59
2022/12/21 00:52:36;;;;;;;0.00;0.00;;;;;;;;;;5092998;28;20024;-60
2022/12/21 00:55:01;;;;;;;0.00;0.00;;;;;;;;;;5092726;28;20020;-60
2022/12/21 00:57:27;;;;;;;0.00;0.00;;;;;;;;;;5094303;28;20020;-59
2022/12/21 00:59:52;;;;;;;0.43;0.43;;;;;;;;;;5094436;28;20044;-59
2022/12/21 01:02:18;;;;;;;0.00;0.00;;;;;;;;;;5094003;28;20111;-59
2022/12/21 01:04:43;;;;;;;0.38;0.05;;;;;;;;;;5093990;28;20019;-59
2022/12/21 01:07:09;;;;;;;0.00;0.00;;;;;;;;;;5093830;28;20062;-59
2022/12/21 01:09:34;;;;;;;0.20;0.10;;;;;;;;;;5092661;28;20103;-59
2022/12/21 01:12:00;;;;;;;0.40;0.40;;;;;;;;;;5091424;28;20468;-59
2022/12/21 01:14:26;;;;;;;0.15;0.03;;;;;;;;;;5094091;28;20016;-59
2022/12/21 01:16:51;;;;;;;0.00;0.00;;;;;;;;;;5094275;28;20020;-58
2022/12/21 01:19:17;;;;;;;0.00;0.00;;;;;;;;;;5092656;28;20026;-59
2022/12/21 01:21:42;;;;;;;0.10;0.10;;;;;;;;;;5093721;28;20023;-58
2022/12/21 01:24:10;;;;;;;2.90;0.73;;;;;;;;;;5092381;28;20039;-58
2022/12/21 01:26:36;;;;;;;1.75;0.40;;;;;;;;;;5093619;28;20047;-58
2022/12/21 01:29:01;;;;;;;0.08;0.08;;;;;;;;;;5092193;28;20059;-59
2022/12/21 01:31:27;;;;;;;0.13;0.13;;;;;;;;;;5093592;28;20434;-59
2022/12/21 01:33:52;;;;;;;0.00;0.00;;;;;;;;;;5093422;28;20464;-59
2022/12/21 01:36:18;;;;;;;0.03;0.03;;;;;;;;;;5092197;28;20020;-58
2022/12/21 01:38:44;;;;;;;0.05;0.05;;;;;;;;;;5092132;28;20035;-58
2022/12/21 01:41:12;;;;;;;0.10;0.03;;;;;;;;;;5093270;28;20016;-59
2022/12/21 01:43:41;;;;;;;0.52;0.20;;;;;;;;;;5092239;28;20036;-58
2022/12/21 01:46:09;;;;;;;0.20;0.10;;;;;;;;;;5093401;28;20537;-59
2022/12/21 01:48:36;;;;;;;0.00;0.00;;;;;;;;;;5091987;28;20464;-60
2022/12/21 01:51:04;;;;;;;13.73;0.60;;;;;;;;;;5091830;28;20026;-60
2022/12/21 01:53:36;;;;;;;0.00;0.00;;;;;;;;;;5092293;28;20026;-63
2022/12/21 01:56:03;;;;;;;0.00;0.00;;;;;;;;;;5093696;28;20114;-59
2022/12/21 01:58:29;;;;;;;0.10;0.10;;;;;;;;;;5091635;28;20063;-61
2022/12/21 02:00:56;;;;;;;0.08;0.08;;;;;;;;;;5091833;28;20027;-60
2022/12/21 02:03:24;;;;;;;0.20;0.20;;;;;;;;;;5091810;28;20119;-60
2022/12/21 02:05:54;;;;;;;0.52;0.38;;;;;;;;;;5092784;28;20111;-60
2022/12/21 02:08:21;;;;;;;0.63;0.45;;;;;;;;;;5091437;28;20112;-60
2022/12/21 02:10:46;;;;;;;0.10;0.10;;;;;;;;;;5093150;28;20020;-60
2022/12/21 02:13:16;;;;;;;0.20;0.13;;;;;;;;;;5092948;28;20028;-59
2022/12/21 02:15:53;;;;;;;0.22;0.22;;;;;;;;;;5091718;28;20032;-59
2022/12/21 02:18:39;;;;;;;0.00;0.00;;;;;;;;;;5092893;28;20026;-61
2022/12/21 02:21:13;;;;;;;0.00;0.00;;;;;;;;;;5060642;28;20028;-60
2022/12/21 02:23:45;;;;;;;0.40;0.40;;;;;;;;;;5090996;28;20038;-60
2022/12/21 02:26:28;;;;;;;0.55;0.08;;;;;;;;;;5091296;28;20100;-62
2022/12/21 02:29:02;;;;;;;0.57;0.50;;;;;;;;;;5092971;28;20024;-63
2022/12/21 02:31:35;;;;;;;0.00;0.00;;;;;;;;;;5093183;28;20027;-60
2022/12/21 02:34:24;;;;;;;0.30;0.15;;;;;;;;;;5092989;28;20392;-60
2022/12/21 02:37:07;;;;;;;0.22;0.22;;;;;;;;;;5092706;28;20020;-60
2022/12/21 02:39:32;;;;;;;0.38;0.20;;;;;;;;;;5092407;28;20023;-61
2022/12/21 02:42:02;;;;;;;0.65;0.55;;;;;;;;;;5091179;28;20020;-63
2022/12/21 02:44:36;;;;;;;0.00;0.00;;;;;;;;;;5092460;28;20122;-62
2022/12/21 02:47:11;;;;;;;0.10;0.10;;;;;;;;;;5090783;28;20123;-61
2022/12/21 02:49:37;;;;;;;0.60;0.60;;;;;;;;;;5090893;28;20472;-62
2022/12/21 02:52:09;;;;;;;0.10;0.10;;;;;;;;;;5090756;28;20039;-62
2022/12/21 02:54:37;;;;;;;0.00;0.00;;;;;;;;;;5091130;28;20020;-62
2022/12/21 02:57:02;;;;;;;0.60;0.60;;;;;;;;;;5092242;28;20488;-61
2022/12/21 02:59:29;;;;;;;0.22;0.22;;;;;;;;;;5090804;28;20060;-62
2022/12/21 03:01:54;;;;;;;0.00;0.00;;;;;;;;;;5092107;28;20022;-62
2022/12/21 03:04:31;;;;;;;0.03;0.03;;;;;;;;;;5090793;28;20123;-62
2022/12/21 03:07:15;;;;;;;0.00;0.00;;;;;;;;;;5090810;28;20506;-65
2022/12/21 03:09:56;;;;;;;0.10;0.10;;;;;;;;;;5091517;28;20024;-62
2022/12/21 03:12:57;;;;;;;1.02;0.93;;;;;;;;;;5091315;28;20120;-62
2022/12/21 03:15:25;;;;;;;0.00;0.00;;;;;;;;;;5013196;28;20040;-60
2022/12/21 03:17:56;;;;;;;0.08;0.08;;;;;;;;;;5075259;28;20120;-63
2022/12/21 03:20:24;;;;;;;1.80;1.27;;;;;;;;;;5092025;28;20024;-61
2022/12/21 03:22:59;;;;;;;0.38;0.38;;;;;;;;;;5090685;28;20484;-60
2022/12/21 03:25:27;;;;;;;0.20;0.20;;;;;;;;;;5090495;28;20054;-60
2022/12/21 03:27:54;;;;;;;0.15;0.15;;;;;;;;;;5091214;28;20028;-60
2022/12/21 03:30:20;;;;;;;0.08;0.08;;;;;;;;;;5091986;28;20035;-62
2022/12/21 03:32:57;;;;;;;0.10;0.10;;;;;;;;;;5090653;28;20119;-60
2022/12/21 03:35:22;;;;;;;0.40;0.40;;;;;;;;;;5091466;28;20024;-60
2022/12/21 03:37:49;;;;;;;0.00;0.00;;;;;;;;;;5094535;28;20028;-61
2022/12/21 03:40:21;;;;;;;0.00;0.00;;;;;;;;;;5094332;28;20067;-61
2022/12/21 03:42:50;;;;;;;0.00;0.00;;;;;;;;;;5096100;28;20032;-60
2022/12/21 03:45:20;;;;;;;0.20;0.20;;;;;;;;;;5095651;28;20016;-61
2022/12/21 03:47:50;;;;;;;0.25;0.25;;;;;;;;;;5094230;28;20035;-63
2022/12/21 03:50:21;;;;;;;0.00;0.00;;;;;;;;;;5095900;28;20468;-61
2022/12/21 03:53:02;;;;;;;0.00;0.00;;;;;;;;;;5094456;28;20020;-62
2022/12/21 03:55:29;;;;;;;0.00;0.00;;;;;;;;;;5094842;28;20027;-61
2022/12/21 03:57:55;;;;;;;0.00;0.00;;;;;;;;;;5094349;28;20017;-62
2022/12/21 04:00:20;;;;;;;0.00;0.00;;;;;;;;;;5093938;28;20165;-66
2022/12/21 04:02:50;;;;;;;0.00;0.00;;;;;;;;;;5093878;28;20118;-65
2022/12/21 04:05:20;;;;;;;0.38;0.13;;;;;;;;;;5095407;28;20027;-62
2022/12/21 04:07:47;;;;;;;0.00;0.00;;;;;;;;;;5095152;28;20020;-63
2022/12/21 04:10:14;;;;;;;0.00;0.00;;;;;;;;;;5093970;28;20051;-64
2022/12/21 04:12:39;;;;;;;5.25;0.47;;;;;;;;;;5093815;28;20012;-64
2022/12/21 04:15:06;;;;;;;0.00;0.00;;;;;;;;;;5093511;28;20024;-65
2022/12/21 04:17:34;;;;;;;0.00;0.00;;;;;;;;;;5094077;28;20435;-68
2022/12/21 04:19:59;;;;;;;0.00;0.00;;;;;;;;;;5094114;28;20027;-69
2022/12/21 04:28:09;;;;;;;0.08;0.08;;;;;;;;;;5094850;28;19912;-66
2022/12/21 04:30:39;;;;;;;0.00;0.00;;;;;;;;;;5093559;28;20027;-66
2022/12/21 04:33:05;;;;;;;0.00;0.00;;;;;;;;;;5093397;28;20020;-66
2022/12/21 04:35:30;;;;;;;0.13;0.13;;;;;;;;;;5094693;28;20370;-66
2022/12/21 04:37:55;;;;;;;0.25;0.25;;;;;;;;;;5094642;28;20016;-67
2022/12/21 04:40:21;;;;;;;0.30;0.17;;;;;;;;;;5094944;28;20012;-68
2022/12/21 04:42:46;;;;;;;0.10;0.10;;;;;;;;;;5094671;28;20174;-67
2022/12/21 04:45:12;;;;;;;0.00;0.00;;;;;;;;;;5093137;28;20088;-68
2022/12/21 04:47:37;;;;;;;0.00;0.00;;;;;;;;;;5094156;28;20020;-69
2022/12/21 04:50:03;;;;;;;0.00;0.00;;;;;;;;;;5094121;28;20024;-69
2022/12/21 04:52:30;;;;;;;0.00;0.00;;;;;;;;;;5094251;28;20012;-70
2022/12/21 04:54:56;;;;;;;0.00;0.00;;;;;;;;;;5093076;28;20466;-71
2022/12/21 04:57:21;;;;;;;0.10;0.10;;;;;;;;;;5094211;28;20013;-69
2022/12/21 04:59:47;;;;;;;0.45;0.30;;;;;;;;;;5092675;28;20059;-67
2022/12/21 05:02:12;;;;;;;0.95;0.22;;;;;;;;;;5093958;28;20069;-67
2022/12/21 05:04:38;;;;;;;0.00;0.00;;;;;;;;;;5094074;28;20064;-68
2022/12/21 05:07:03;;;;;;;0.00;0.00;;;;;;;;;;5094015;28;20020;-66
2022/12/21 05:09:29;;;;;;;0.00;0.00;;;;;;;;;;5092611;28;20452;-68
2022/12/21 05:11:54;;;;;;;0.20;0.20;;;;;;;;;;5093778;28;20019;-68
2022/12/21 05:14:20;;;;;;;0.00;0.00;;;;;;;;;;5092728;28;20120;-68
2022/12/21 05:16:46;;;;;;;7.38;0.32;;;;;;;;;;5093701;28;20041;-69
2022/12/21 05:19:12;;;;;;;0.00;0.00;;;;;;;;;;5091844;28;20016;-70
2022/12/21 05:21:38;;;;;;;0.00;0.00;;;;;;;;;;5092238;28;20074;-68
2022/12/21 05:24:04;;;;;;;0.00;0.00;;;;;;;;;;5093364;28;20138;-69
2022/12/21 05:26:29;;;;;;;0.00;0.00;;;;;;;;;;5092153;28;20045;-69
2022/12/21 05:28:55;;;;;;;0.00;0.00;;;;;;;;;;5092413;28;20019;-68
2022/12/21 05:31:20;;;;;;;0.00;0.00;;;;;;;;;;5091959;28;20022;-69
2022/12/21 05:33:46;;;;;;;0.00;0.00;;;;;;;;;;5092512;28;20128;-69
2022/12/21 05:36:12;;;;;;;0.00;0.00;;;;;;;;;;5093681;28;20431;-68
2022/12/21 05:38:38;;;;;;;0.00;0.00;;;;;;;;;;5092281;28;20016;-69
2022/12/21 05:41:04;;;;;;;0.10;0.10;;;;;;;;;;5093207;28;20020;-69
2022/12/21 05:43:30;;;;;;;0.00;0.00;;;;;;;;;;5092361;28;20081;-71
2022/12/21 05:45:59;;;;;;;0.00;0.00;;;;;;;;;;5092517;28;20366;-68
2022/12/21 05:48:24;;;;;;;0.00;0.00;;;;;;;;;;5094026;28;20019;-70
2022/12/21 05:50:50;;;;;;;0.00;0.00;;;;;;;;;;5092187;28;20111;-69
2022/12/21 05:53:15;;;;;;;0.00;0.00;;;;;;;;;;5092810;28;20111;-71
2022/12/21 05:55:44;;;;;;;0.00;0.00;;;;;;;;;;5091650;28;20042;-69
2022/12/21 05:58:10;;;;;;;0.00;0.00;;;;;;;;;;5091086;28;20032;-69
2022/12/21 06:00:36;;;;;;;0.00;0.00;;;;;;;;;;5091299;28;20135;-72
2022/12/21 06:03:02;;;;;;;0.57;0.57;;;;;;;;;;5091182;28;20395;-70
2022/12/21 06:05:27;;;;;;;0.40;0.40;;;;;;;;;;5091254;28;20030;-69
2022/12/21 06:07:53;;;;;;;0.00;0.00;;;;;;;;;;5092439;28;20102;-70
2022/12/21 06:10:18;;;;;;;0.00;0.00;;;;;;;;;;5093007;28;20031;-71
2022/12/21 06:12:44;;;;;;;0.05;0.05;;;;;;;;;;5091227;28;20065;-71
2022/12/21 06:15:09;;;;;;;0.00;0.00;;;;;;;;;;5092832;28;20008;-72
2022/12/21 06:17:35;;;;;;;0.00;0.00;;;;;;;;;;5091337;28;20019;-71
2022/12/21 06:20:00;;;;;;;0.00;0.00;;;;;;;;;;5092518;28;20433;-70
2022/12/21 06:22:26;;;;;;;0.00;0.00;;;;;;;;;;5090985;28;20034;-70
2022/12/21 06:24:51;;;;;;;0.00;0.00;;;;;;;;;;5092303;28;20027;-70
2022/12/21 06:27:16;;;;;;;0.00;0.00;;;;;;;;;;5091932;28;20474;-70
2022/12/21 06:29:42;;;;;;;0.30;0.30;;;;;;;;;;5090968;28;20030;-70
2022/12/21 06:32:07;;;;;;;0.00;0.00;;;;;;;;;;5092150;28;20012;-72
2022/12/21 06:34:33;;;;;;;0.00;0.00;;;;;;;;;;5090729;28;20099;-71
2022/12/21 06:36:58;;;;;;;0.00;0.00;;;;;;;;;;5090200;28;20491;-70
2022/12/21 06:39:24;;;;;;;1.30;0.47;;;;;;;;;;5092131;28;20077;-72
2022/12/21 06:41:52;;;;;;;0.10;0.10;;;;;;;;;;5089910;28;20406;-70
2022/12/21 06:44:18;;;;;;;0.00;0.00;;;;;;;;;;5091425;28;20364;-72
2022/12/21 06:46:44;;;;;;;0.00;0.00;;;;;;;;;;5090331;28;20020;-72
2022/12/21 06:49:12;;;;;;;0.00;0.00;;;;;;;;;;5090632;28;20095;-71
2022/12/21 06:51:37;;;;;;;0.00;0.00;;;;;;;;;;5089890;28;20333;-72
2022/12/21 06:54:02;;;;;;;0.03;0.03;;;;;;;;;;5091222;28;20019;-72
2022/12/21 06:56:31;;;;;;;0.00;0.00;;;;;;;;;;5090186;28;20079;-72
2022/12/21 06:58:57;;;;;;;0.00;0.00;;;;;;;;;;5091468;28;20481;-75
2022/12/21 07:01:23;;;;;;;0.00;0.00;;;;;;;;;;5091037;28;20032;-73
2022/12/21 07:03:49;;;;;;;0.00;0.00;;;;;;;;;;5090209;28;20032;-72
2022/12/21 07:06:15;;;;;;;0.00;0.00;;;;;;;;;;5089515;28;20043;-73
2022/12/21 07:08:42;;;;;;;0.15;0.15;;;;;;;;;;5089622;28;20604;-73
2022/12/21 07:11:09;;;;;;;0.10;0.10;;;;;;;;;;5091994;28;20023;-72
2022/12/21 07:13:35;;;;;;;0.00;0.00;;;;;;;;;;5094883;28;20023;-74
2022/12/21 07:16:00;;;;;;;0.00;0.00;;;;;;;;;;5095310;28;20016;-72
2022/12/21 07:18:26;;;;;;;0.00;0.00;;;;;;;;;;5093798;28;20062;-73
2022/12/21 07:20:58;;;;;;;0.00;0.00;;;;;;;;;;5094783;28;20020;-72
2022/12/21 07:23:27;;;;;;;0.00;0.00;;;;;;;;;;5093783;28;20024;-73
2022/12/21 07:25:52;;;;;;;0.00;0.00;;;;;;;;;;5094898;28;20111;-73
2022/12/21 07:28:19;;;;;;;0.00;0.00;;;;;;;;;;5094318;28;20424;-73
2022/12/21 07:30:48;;;;;;;0.00;0.00;;;;;;;;;;5093837;28;20074;-71
2022/12/21 07:33:14;;;;;;;0.25;0.25;;;;;;;;;;5094633;28;20020;-73
2022/12/21 07:35:40;;;;;;;0.00;0.00;;;;;;;;;;5095088;28;20384;-74
2022/12/21 07:38:06;;;;;;;0.00;0.00;;;;;;;;;;5094945;28;20041;-73
2022/12/21 07:40:31;;;;;;;0.52;0.52;;;;;;;;;;5095007;28;20376;-73
2022/12/21 07:42:57;;;;;;;0.00;0.00;;;;;;;;;;5093275;28;20024;-73
2022/12/21 07:45:22;;;;;;;0.00;0.00;;;;;;;;;;5095190;28;20464;-73
2022/12/21 07:47:48;;;;;;;0.85;0.85;;;;;;;;;;5094497;28;20016;-74
2022/12/21 07:50:13;;;;;;;0.00;0.00;;;;;;;;;;5095072;28;20022;-72
2022/12/21 07:52:39;;;;;;;0.00;0.00;;;;;;;;;;5094842;28;20392;-73
2022/12/21 07:55:05;;;;;;;0.90;0.20;;;;;;;;;;5093171;28;20020;-72
2022/12/21 07:57:31;;;;;;;2.10;0.52;;;;;;;;;;5094476;28;20045;-72
2022/12/21 07:59:57;;;;;;;0.25;0.22;;;;;;;;;;5093845;28;20512;-73
2022/12/21 08:02:22;;;;;;;0.00;0.00;;;;;;;;;;5094830;28;20019;-73
2022/12/21 08:04:48;;;;;;;0.00;0.00;;;;;;;;;;5094737;28;20020;-72
2022/12/21 08:07:13;;;;;;;0.28;0.28;;;;;;;;;;5094402;28;20103;-73
2022/12/21 08:09:38;;;;;;;0.20;0.20;;;;;;;;;;5094281;28;20107;-73
2022/12/21 08:12:04;;;;;;;0.00;0.00;;;;;;;;;;5095885;28;20020;-73
2022/12/21 08:14:29;;;;;;;0.15;0.15;;;;;;;;;;5095989;28;20358;-71
2022/12/21 08:16:55;;;;;;;0.00;0.00;;;;;;;;;;5094177;28;20020;-73
2022/12/21 08:19:21;;;;;;;0.22;0.15;;;;;;;;;;5093926;28;20023;-72
2022/12/21 08:21:46;;;;;;;0.30;0.30;;;;;;;;;;5092352;28;20017;-71
2022/12/21 08:24:12;;;;;;;0.00;0.00;;;;;;;;;;5092786;28;20100;-73
2022/12/21 08:26:37;;;;;;;0.20;0.20;;;;;;;;;;5094536;28;20020;-72
2022/12/21 08:29:03;;;;;;;0.00;0.00;;;;;;;;;;5092992;28;20055;-73
2022/12/21 08:31:29;;;;;;;0.63;0.32;;;;;;;;;;5093119;28;20027;-73
2022/12/21 08:33:54;;;;;;;0.00;0.00;;;;;;;;;;5094530;28;20439;-73
2022/12/21 08:36:21;;;;;;;0.15;0.13;;;;;;;;;;5093143;28;20022;-72
2022/12/21 08:38:48;;;;;;;0.00;0.00;;;;;;;;;;5092753;28;20098;-73
2022/12/21 08:41:15;;;;;;;0.00;0.00;;;;;;;;;;5093886;28;20101;-71
2022/12/21 08:43:40;;;;;;;0.03;0.03;;;;;;;;;;5093890;28;20032;-72
2022/12/21 08:46:07;;;;;;;0.22;0.22;;;;;;;;;;5092969;28;20477;-73
2022/12/21 08:48:33;;;;;;;0.00;0.00;;;;;;;;;;5093065;28;20024;-71
2022/12/21 08:50:59;;;;;;;0.00;0.00;;;;;;;;;;5092705;28;20107;-74
2022/12/21 08:53:25;;;;;;;0.00;0.00;;;;;;;;;;5094119;28;20476;-73
2022/12/21 08:55:50;;;;;;;0.00;0.00;;;;;;;;;;5095064;28;20091;-73
2022/12/21 08:58:16;;;;;;;0.00;0.00;;;;;;;;;;5093003;28;20560;-73
2022/12/21 09:00:42;;;;;;;0.00;0.00;;;;;;;;;;5093922;28;20575;-73
2022/12/21 09:03:08;;;;;;;0.00;0.00;;;;;;;;;;5093817;28;20066;-72
2022/12/21 09:05:34;;;;;;;0.00;0.00;;;;;;;;;;5094184;28;20052;-73
2022/12/21 09:07:59;;;;;;;0.10;0.10;;;;;;;;;;5093744;28;20498;-73
2022/12/21 09:10:25;;;;;;;3.00;0.55;;;;;;;;;;5093444;28;20027;-72
2022/12/21 09:12:50;;;;;;;0.85;0.35;;;;;;;;;;5093830;28;20057;-71
2022/12/21 09:15:16;;;;;;;9.48;0.52;;;;;;;;;;5091693;28;20031;-73
2022/12/21 09:17:42;;;;;;;6.25;0.90;;;;;;;;;;5093241;28;20012;-72
2022/12/21 09:20:08;;;;;;;0.00;0.00;;;;;;;;;;5092465;28;20473;-73
2022/12/21 09:22:33;;;;;;;0.00;0.00;;;;;;;;;;5092352;28;20012;-74
2022/12/21 09:24:59;;;;;;;0.00;0.00;;;;;;;;;;5093749;28;20012;-73
2022/12/21 09:27:24;;;;;;;0.38;0.08;;;;;;;;;;5093393;28;20411;-71
2022/12/21 09:29:49;;;;;;;6.38;1.20;;;;;;;;;;5094026;28;20031;-73
2022/12/21 09:32:15;;;;;;;0.00;0.00;;;;;;;;;;5093149;28;20012;-71
2022/12/21 09:34:41;;;;;;;0.88;0.80;;;;;;;;;;5091862;28;20042;-73
2022/12/21 09:37:06;;;;;;;1.77;0.95;;;;;;;;;;5092348;28;20060;-73
2022/12/21 09:39:32;;;;;;;2.70;0.22;;;;;;;;;;5091282;28;20103;-72
2022/12/21 09:41:57;;;;;;;0.52;0.52;;;;;;;;;;5090319;28;20024;-73
2022/12/21 09:44:47;;;;;;;0.75;0.22;;;;;;;;;;5091548;28;20122;-73
2022/12/21 09:47:15;;;;;;;11.07;0.30;;;;;;;;;;5091923;28;20020;-73
2022/12/21 09:49:43;;;;;;;2.17;0.25;;;;;;;;;;5089939;28;20038;-72
2022/12/21 09:52:16;;;;;;;0.38;0.38;;;;;;;;;;5089934;28;20432;-73
2022/12/21 09:54:45;;;;;;;0.55;0.55;;;;;;;;;;5091590;28;20016;-73
2022/12/21 09:57:12;;;;;;;0.00;0.00;;;;;;;;;;5090721;28;20012;-73
2022/12/21 09:59:38;;;;;;;0.10;0.10;;;;;;;;;;5091444;28;20151;-72
2022/12/21 10:02:29;;;;;;;0.00;0.00;;;;;;;;;;5090052;28;20376;-73
2022/12/21 10:05:02;;;;;;;0.00;0.00;;;;;;;;;;5089663;28;20028;-73
2022/12/21 10:07:56;;;;;;;5.25;1.10;;;;;;;;;;5089160;28;20043;-73
2022/12/21 10:10:30;;;;;;;3.00;1.08;;;;;;;;;;5091424;28;20365;-73
2022/12/21 10:13:14;;;;;;;0.45;0.20;;;;;;;;;;5091111;28;20371;-77
2022/12/21 10:15:45;;;;;;;0.00;0.00;;;;;;;;;;5090765;28;20494;-74
2022/12/21 10:18:17;;;;;;;0.00;0.00;;;;;;;;;;5091083;28;20026;-73
2022/12/21 10:20:47;;;;;;;0.00;0.00;;;;;;;;;;5092239;28;20008;-73
2022/12/21 10:23:24;;;;;;;0.20;0.20;;;;;;;;;;5092065;28;20075;-72
2022/12/21 10:25:52;;;;;;;0.00;0.00;;;;;;;;;;5091802;28;20436;-72
2022/12/21 10:28:37;;;;;;;0.00;0.00;;;;;;;;;;5092034;28;20023;-71
2022/12/21 10:31:04;;;;;;;0.00;0.00;;;;;;;;;;5089856;28;20017;-74
2022/12/21 10:33:30;;;;;;;0.00;0.00;;;;;;;;;;5091961;28;20365;-73
2022/12/21 10:35:58;;;;;;;0.00;0.00;;;;;;;;;;5090464;28;20023;-72
2022/12/21 10:38:27;;;;;;;0.00;0.00;;;;;;;;;;5090327;28;20028;-73
2022/12/21 10:40:53;;;;;;;1.52;0.28;;;;;;;;;;5091564;28;20012;-73
2022/12/21 10:43:19;;;;;;;0.80;0.80;;;;;;;;;;5091287;28;20035;-74
2022/12/21 10:45:45;;;;;;;0.52;0.52;;;;;;;;;;5089557;28;20549;-72
2022/12/21 10:48:11;;;;;;;4.47;1.13;;;;;;;;;;5091058;28;20028;-72
2022/12/21 10:50:39;;;;;;;3.85;1.65;;;;;;;;;;5089904;28;20465;-73
2022/12/21 10:53:20;;;;;;;5.38;2.08;;;;;;;;;;5091167;28;20016;-72
2022/12/21 10:55:46;;;;;;;1.90;0.45;;;;;;;;;;5091094;28;20016;-73
2022/12/21 10:58:18;;;;;;;1.15;1.13;;;;;;;;;;5091301;28;20016;-73
2022/12/21 11:01:04;;;;;;;0.10;0.10;;;;;;;;;;5089651;28;20101;-74
2022/12/21 11:03:37;;;;;;;0.50;0.50;;;;;;;;;;5091336;28;20032;-73
2022/12/21 11:06:12;;;;;;;0.47;0.15;;;;;;;;;;5089835;28;20060;-72
2022/12/21 11:08:49;;;;;;;0.10;0.10;;;;;;;;;;5091292;28;20038;-73
2022/12/21 11:11:31;;;;;;;0.45;0.45;;;;;;;;;;5091045;28;20095;-73
2022/12/21 11:13:57;;;;;;;1.35;0.80;;;;;;;;;;5091298;28;20457;-73
2022/12/21 11:16:25;;;;;;;0.85;0.65;;;;;;;;;;5089696;28;20520;-72
2022/12/21 11:18:50;;;;;;;3.00;1.08;;;;;;;;;;5090756;28;20053;-73
2022/12/21 11:21:20;;;;;;;1.08;0.52;;;;;;;;;;5089231;28;20043;-72
2022/12/21 11:23:53;;;;;;;9.68;0.55;;;;;;;;;;5091018;28;20036;-72
2022/12/21 11:26:24;;;;;;;5.78;1.38;;;;;;;;;;5091121;28;20095;-72
2022/12/21 11:28:50;;;;;;;0.00;0.00;;;;;;;;;;5090877;28;20111;-72
2022/12/21 11:31:15;;;;;;;1.00;0.90;;;;;;;;;;5091278;28;20452;-73
2022/12/21 11:33:44;;;;;;;0.05;0.05;;;;;;;;;;5090871;28;20115;-72
2022/12/21 11:36:14;;;;;;;0.00;0.00;;;;;;;;;;5091287;28;20476;-72
2022/12/21 11:38:39;;;;;;;0.17;0.17;;;;;;;;;;5089714;28;20020;-73
2022/12/21 11:41:10;;;;;;;0.00;0.00;;;;;;;;;;5089339;28;20443;-73
2022/12/21 11:43:48;;;;;;;0.45;0.38;;;;;;;;;;5090705;28;20126;-72
2022/12/21 11:46:15;;;;;;;0.10;0.10;;;;;;;;;;5090579;28;20430;-73
2022/12/21 11:48:46;;;;;;;0.47;0.45;;;;;;;;;;5090379;28;20054;-74
2022/12/21 11:51:11;;;;;;;4.15;0.77;;;;;;;;;;5090371;28;20058;-72
2022/12/21 11:53:46;;;;;;;0.00;0.00;;;;;;;;;;5091329;28;20044;-74
2022/12/21 11:56:17;;;;;;;0.00;0.00;;;;;;;;;;5090900;28;20020;-74
2022/12/21 11:58:51;;;;;;;0.22;0.10;;;;;;;;;;5094262;28;20024;-73
2022/12/21 12:01:33;;;;;;;1.48;1.25;;;;;;;;;;5093288;28;20111;-72
2022/12/21 12:04:16;;;;;;;0.08;0.08;;;;;;;;;;5094662;28;20101;-74
2022/12/21 12:06:41;;;;;;;0.70;0.60;;;;;;;;;;5093217;28;20028;-75
2022/12/21 12:09:07;;;;;;;12.43;1.23;;;;;;;;;;5093955;28;20307;-73
2022/12/21 12:11:32;;;;;;;0.40;0.40;;;;;;;;;;5094280;28;20016;-75
2022/12/21 12:14:01;;;;;;;0.03;0.03;;;;;;;;;;5094426;28;20016;-73
2022/12/21 12:16:45;;;;;;;1.25;0.80;;;;;;;;;;5093144;28;20353;-73
2022/12/21 12:19:10;;;;;;;0.10;0.10;;;;;;;;;;5094630;28;20537;-73
2022/12/21 12:21:47;;;;;;;0.00;0.00;;;;;;;;;;5093055;28;20107;-74
2022/12/21 12:24:22;;;;;;;0.00;0.00;;;;;;;;;;5094336;28;20035;-73
2022/12/21 12:27:08;;;;;;;0.70;0.70;;;;;;;;;;5094081;28;20028;-74
2022/12/21 12:29:33;;;;;;;0.00;0.00;;;;;;;;;;5062433;28;20484;-74
2022/12/21 12:32:09;;;;;;;1.45;0.43;;;;;;;;;;5094653;28;20091;-73
2022/12/21 12:34:44;;;;;;;0.00;0.00;;;;;;;;;;5093554;28;20019;-73
2022/12/21 12:37:21;;;;;;;0.38;0.38;;;;;;;;;;5093868;28;20430;-74
2022/12/21 12:40:01;;;;;;;0.22;0.20;;;;;;;;;;5093893;28;20024;-70
2022/12/21 12:42:37;;;;;;;0.00;0.00;;;;;;;;;;5093673;28;20016;-72
2022/12/21 12:45:13;;;;;;;0.75;0.75;;;;;;;;;;5093344;28;20545;-74
2022/12/21 12:47:47;;;;;;;0.10;0.10;;;;;;;;;;5092378;28;20081;-73
2022/12/21 12:50:27;;;;;;;0.00;0.00;;;;;;;;;;5092569;28;20024;-74
2022/12/21 12:53:15;;;;;;;0.05;0.05;;;;;;;;;;5092261;28;20028;-74
2022/12/21 12:55:49;;;;;;;1.77;1.17;;;;;;;;;;5093540;28;20710;-73
2022/12/21 12:58:33;;;;;;;0.22;0.22;;;;;;;;;;5093433;28;20028;-73
2022/12/21 13:01:12;;;;;;;0.45;0.45;;;;;;;;;;5091741;28;20161;-74
2022/12/21 13:03:41;;;;;;;1.08;0.15;;;;;;;;;;5093310;28;20502;-75
2022/12/21 13:06:06;;;;;;;0.52;0.52;;;;;;;;;;5092005;28;20039;-73
2022/12/21 13:08:40;;;;;;;0.55;0.38;;;;;;;;;;5095238;28;20111;-74
2022/12/21 13:11:14;;;;;;;0.00;0.00;;;;;;;;;;5092947;28;20020;-75
2022/12/21 13:13:56;;;;;;;0.10;0.00;;;;;;;;;;5091997;28;20034;-74
2022/12/21 13:16:31;;;;;;;3.00;1.08;;;;;;;;;;5091764;28;20039;-74
2022/12/21 13:19:01;;;;;;;0.63;0.63;;;;;;;;;;5091577;28;20025;-75
2022/12/21 13:21:28;;;;;;;0.00;0.00;;;;;;;;;;5093812;28;20028;-74
2022/12/21 13:23:58;;;;;;;0.00;0.00;;;;;;;;;;5093669;28;20028;-74
2022/12/21 13:26:30;;;;;;;0.80;0.60;;;;;;;;;;5091833;28;20077;-74
2022/12/21 13:29:01;;;;;;;1.30;0.65;;;;;;;;;;5091637;28;20047;-72
2022/12/21 13:31:29;;;;;;;7.75;1.85;;;;;;;;;;5093039;28;20032;-73
2022/12/21 13:34:00;;;;;;;1.65;0.80;;;;;;;;;;5092936;28;20016;-73
2022/12/21 13:36:30;;;;;;;13.85;0.60;;;;;;;;;;5092983;28;20023;-72
2022/12/21 13:39:05;;;;;;;0.00;0.00;;;;;;;;;;5091308;28;20086;-78
2022/12/21 13:41:33;;;;;;;1.55;0.85;;;;;;;;;;5092784;28;20418;-73
2022/12/21 13:44:05;;;;;;;0.00;0.00;;;;;;;;;;5091024;28;20096;-72
2022/12/21 13:46:31;;;;;;;0.43;0.28;;;;;;;;;;5092821;28;20031;-73
2022/12/21 13:49:13;;;;;;;0.00;0.00;;;;;;;;;;5092668;28;20051;-73
2022/12/21 13:52:04;;;;;;;0.00;0.00;;;;;;;;;;5093029;28;20017;-74
2022/12/21 13:54:49;;;;;;;0.08;0.08;;;;;;;;;;5089334;28;20071;-74
2022/12/21 13:57:23;;;;;;;0.45;0.43;;;;;;;;;;5091098;28;20092;-72
2022/12/21 14:00:08;;;;;;;0.00;0.00;;;;;;;;;;5090887;28;20075;-74
2022/12/21 14:02:33;;;;;;;5.05;1.45;;;;;;;;;;5092496;28;20111;-74
2022/12/21 14:05:02;;;;;;;0.00;0.00;;;;;;;;;;5090637;28;20131;-74
2022/12/21 14:07:51;;;;;;;11.88;0.52;;;;;;;;;;5091943;28;20147;-72
2022/12/21 14:10:19;;;;;;;0.00;0.00;;;;;;;;;;5108034;28;20102;-73
2022/12/21 14:12:47;;;;;;;0.00;0.00;;;;;;;;;;5090977;28;20020;-73
2022/12/21 14:15:19;;;;;;;13.95;0.90;;;;;;;;;;5091988;28;20116;-72
2022/12/21 14:17:46;;;;;;;0.55;0.55;;;;;;;;;;5092098;28;20048;-75
2022/12/21 14:20:17;;;;;;;2.47;0.95;;;;;;;;;;5090654;28;20452;-74
2022/12/21 14:22:43;;;;;;;0.08;0.05;;;;;;;;;;5092168;28;20103;-73
2022/12/21 14:25:19;;;;;;;0.00;0.00;;;;;;;;;;5091883;28;20412;-72
2022/12/21 14:28:01;;;;;;;0.32;0.32;;;;;;;;;;5091408;28;20012;-73
2022/12/21 14:30:29;;;;;;;0.00;0.00;;;;;;;;;;5091228;28;20016;-74
2022/12/21 14:32:56;;;;;;;0.00;0.00;;;;;;;;;;5092412;28;20461;-72
2022/12/21 14:35:29;;;;;;;6.32;1.17;;;;;;;;;;5092193;28;20030;-72
2022/12/21 14:38:09;;;;;;;12.43;1.83;;;;;;;;;;5090343;28;20016;-73
2022/12/21 14:40:53;;;;;;;0.00;0.00;;;;;;;;;;5091645;28;20027;-74
2022/12/21 14:43:18;;;;;;;0.22;0.15;;;;;;;;;;5091246;28;20121;-74
2022/12/21 14:45:45;;;;;;;0.00;0.00;;;;;;;;;;5090914;28;20016;-72
2022/12/21 14:48:26;;;;;;;2.65;1.45;;;;;;;;;;5091977;28;20028;-72
2022/12/21 14:51:01;;;;;;;3.28;1.60;;;;;;;;;;5091810;28;20104;-74
2022/12/21 14:53:26;;;;;;;;;;;;;;;;;;5092287;28;20016;-72
2022/12/21 14:56:04;;;;;;;1.10;0.38;;;;;;;;;;5091019;28;20723;-73
2022/12/21 14:58:35;;;;;;;0.47;0.47;;;;;;;;;;5090068;28;20033;-72
2022/12/21 15:01:10;;;;;;;0.30;0.28;;;;;;;;;;5089285;28;20483;-74